sensor_id;sensor_type;location;lat;lon;timestamp;temperature;humidity
29729;DHT22;20055;51.498;11.960;2024-03-25T00:01:38;5.80;99.90
29729;DHT22;20055;51.498;11.960;2024-03-25T00:04:05;5.90;99.90
29729;DHT22;20055;51.498;11.960;2024-03-25T00:06:31;5.90;99.90
29729;DHT22;20055;51.498;11.960;2024-03-25T00:09:00;5.80;99.90
29729;DHT22;20055;51.498;11.960;2024-03-25T00:11:27;5.80;99.90
29729;DHT22;20055;51.498;11.960;2024-03-25T00:13:56;5.90;99.90
29729;DHT22;20055;51.498;11.960;2024-03-25T00:16:23;5.90;99.90
29729;DHT22;20055;51.498;11.960;2024-03-25T00:18:49;5.90;99.90
29729;DHT22;20055;51.498;11.960;2024-03-25T00:21:15;6.00;99.90
29729;DHT22;20055;51.498;11.960;2024-03-25T00:23:42;6.10;99.90
29729;DHT22;20055;51.498;11.960;2024-03-25T00:26:08;6.10;99.90
29729;DHT22;20055;51.498;11.960;2024-03-25T00:28:34;6.10;99.90
29729;DHT22;20055;51.498;11.960;2024-03-25T00:31:00;6.10;99.90
29729;DHT22;20055;51.498;11.960;2024-03-25T00:33:26;6.20;99.90
29729;DHT22;20055;51.498;11.960;2024-03-25T00:35:53;6.10;99.90
29729;DHT22;20055;51.498;11.960;2024-03-25T00:38:19;6.10;99.90
29729;DHT22;20055;51.498;11.960;2024-03-25T00:40:45;6.20;99.90
29729;DHT22;20055;51.498;11.960;2024-03-25T00:43:12;6.20;99.90
29729;DHT22;20055;51.498;11.960;2024-03-25T00:45:38;6.30;99.90
29729;DHT22;20055;51.498;11.960;2024-03-25T00:48:05;6.20;99.90
29729;DHT22;20055;51.498;11.960;2024-03-25T00:50:31;6.20;99.90
29729;DHT22;20055;51.498;11.960;2024-03-25T00:52:57;6.30;99.90
29729;DHT22;20055;51.498;11.960;2024-03-25T00:55:23;6.20;99.90
29729;DHT22;20055;51.498;11.960;2024-03-25T00:57:53;6.20;99.90
29729;DHT22;20055;51.498;11.960;2024-03-25T01:00:20;6.30;99.90
29729;DHT22;20055;51.498;11.960;2024-03-25T01:02:46;6.30;99.90
29729;DHT22;20055;51.498;11.960;2024-03-25T01:05:13;6.30;99.90
29729;DHT22;20055;51.498;11.960;2024-03-25T01:07:39;6.40;99.90
29729;DHT22;20055;51.498;11.960;2024-03-25T01:10:05;6.40;99.90
29729;DHT22;20055;51.498;11.960;2024-03-25T01:12:32;6.40;99.90
29729;DHT22;20055;51.498;11.960;2024-03-25T01:14:58;6.40;99.90
29729;DHT22;20055;51.498;11.960;2024-03-25T01:17:24;6.40;99.90
29729;DHT22;20055;51.498;11.960;2024-03-25T01:19:51;6.30;99.90
29729;DHT22;20055;51.498;11.960;2024-03-25T01:22:17;6.40;99.90
29729;DHT22;20055;51.498;11.960;2024-03-25T01:24:43;6.30;99.90
29729;DHT22;20055;51.498;11.960;2024-03-25T01:27:10;6.40;99.90
29729;DHT22;20055;51.498;11.960;2024-03-25T01:29:36;6.20;99.90
29729;DHT22;20055;51.498;11.960;2024-03-25T01:32:03;6.20;99.90
29729;DHT22;20055;51.498;11.960;2024-03-25T01:34:30;6.10;99.90
29729;DHT22;20055;51.498;11.960;2024-03-25T01:36:56;6.20;99.90
29729;DHT22;20055;51.498;11.960;2024-03-25T01:39:23;6.10;99.90
29729;DHT22;20055;51.498;11.960;2024-03-25T01:41:50;6.10;99.90
29729;DHT22;20055;51.498;11.960;2024-03-25T01:44:16;6.00;99.90
29729;DHT22;20055;51.498;11.960;2024-03-25T01:46:43;6.10;99.90
29729;DHT22;20055;51.498;11.960;2024-03-25T01:49:09;6.00;99.90
29729;DHT22;20055;51.498;11.960;2024-03-25T01:51:36;6.00;99.90
29729;DHT22;20055;51.498;11.960;2024-03-25T01:54:04;6.00;99.90
29729;DHT22;20055;51.498;11.960;2024-03-25T01:56:32;6.00;99.90
29729;DHT22;20055;51.498;11.960;2024-03-25T01:59:00;6.00;99.90
29729;DHT22;20055;51.498;11.960;2024-03-25T02:01:27;6.00;99.90
29729;DHT22;20055;51.498;11.960;2024-03-25T02:03:55;6.10;99.90
29729;DHT22;20055;51.498;11.960;2024-03-25T02:06:21;6.00;99.90
29729;DHT22;20055;51.498;11.960;2024-03-25T02:08:50;6.00;99.90
29729;DHT22;20055;51.498;11.960;2024-03-25T02:11:18;6.10;99.90
29729;DHT22;20055;51.498;11.960;2024-03-25T02:13:45;6.10;99.90
29729;DHT22;20055;51.498;11.960;2024-03-25T02:16:11;6.20;99.90
29729;DHT22;20055;51.498;11.960;2024-03-25T02:18:37;6.10;99.90
29729;DHT22;20055;51.498;11.960;2024-03-25T02:21:04;6.10;99.90
29729;DHT22;20055;51.498;11.960;2024-03-25T02:23:32;6.10;99.90
29729;DHT22;20055;51.498;11.960;2024-03-25T02:26:00;6.10;99.90
29729;DHT22;20055;51.498;11.960;2024-03-25T02:28:26;6.10;99.90
29729;DHT22;20055;51.498;11.960;2024-03-25T02:30:52;6.10;99.90
29729;DHT22;20055;51.498;11.960;2024-03-25T02:33:18;6.10;99.90
29729;DHT22;20055;51.498;11.960;2024-03-25T02:35:44;6.10;99.90
29729;DHT22;20055;51.498;11.960;2024-03-25T02:38:11;6.00;99.90
29729;DHT22;20055;51.498;11.960;2024-03-25T02:40:37;5.90;99.90
29729;DHT22;20055;51.498;11.960;2024-03-25T02:43:04;5.90;99.90
29729;DHT22;20055;51.498;11.960;2024-03-25T02:45:33;5.90;99.90
29729;DHT22;20055;51.498;11.960;2024-03-25T02:47:59;5.80;99.90
29729;DHT22;20055;51.498;11.960;2024-03-25T02:50:25;5.90;99.90
29729;DHT22;20055;51.498;11.960;2024-03-25T02:52:53;5.90;99.90
29729;DHT22;20055;51.498;11.960;2024-03-25T02:55:19;5.80;99.90
29729;DHT22;20055;51.498;11.960;2024-03-25T02:57:45;5.90;99.90
29729;DHT22;20055;51.498;11.960;2024-03-25T03:00:12;5.90;99.90
29729;DHT22;20055;51.498;11.960;2024-03-25T03:02:39;5.90;99.90
29729;DHT22;20055;51.498;11.960;2024-03-25T03:05:05;5.80;99.90
29729;DHT22;20055;51.498;11.960;2024-03-25T03:07:32;5.80;99.90
29729;DHT22;20055;51.498;11.960;2024-03-25T03:09:58;5.70;99.90
29729;DHT22;20055;51.498;11.960;2024-03-25T03:12:24;5.80;99.90
29729;DHT22;20055;51.498;11.960;2024-03-25T03:14:50;5.80;99.90
29729;DHT22;20055;51.498;11.960;2024-03-25T03:17:16;5.80;99.90
29729;DHT22;20055;51.498;11.960;2024-03-25T03:19:45;5.90;99.90
29729;DHT22;20055;51.498;11.960;2024-03-25T03:22:11;5.80;99.90
29729;DHT22;20055;51.498;11.960;2024-03-25T03:24:37;5.80;99.90
29729;DHT22;20055;51.498;11.960;2024-03-25T03:27:03;5.90;99.90
29729;DHT22;20055;51.498;11.960;2024-03-25T03:29:30;5.80;99.90
29729;DHT22;20055;51.498;11.960;2024-03-25T03:31:56;5.80;99.90
29729;DHT22;20055;51.498;11.960;2024-03-25T03:34:22;5.80;99.90
29729;DHT22;20055;51.498;11.960;2024-03-25T03:36:49;5.90;99.90
29729;DHT22;20055;51.498;11.960;2024-03-25T03:39:15;5.80;99.90
29729;DHT22;20055;51.498;11.960;2024-03-25T03:41:41;5.80;99.90
29729;DHT22;20055;51.498;11.960;2024-03-25T03:44:08;5.80;99.90
29729;DHT22;20055;51.498;11.960;2024-03-25T03:46:35;5.80;99.90
29729;DHT22;20055;51.498;11.960;2024-03-25T03:49:01;5.80;99.90
29729;DHT22;20055;51.498;11.960;2024-03-25T03:51:27;5.80;99.90
29729;DHT22;20055;51.498;11.960;2024-03-25T03:53:53;5.80;99.90
29729;DHT22;20055;51.498;11.960;2024-03-25T03:59:08;5.70;99.90
29729;DHT22;20055;51.498;11.960;2024-03-25T04:01:34;5.80;99.90
29729;DHT22;20055;51.498;11.960;2024-03-25T04:04:01;5.80;99.90
29729;DHT22;20055;51.498;11.960;2024-03-25T04:06:27;5.80;99.90
29729;DHT22;20055;51.498;11.960;2024-03-25T04:08:53;5.80;99.90
29729;DHT22;20055;51.498;11.960;2024-03-25T04:11:19;5.90;99.90
29729;DHT22;20055;51.498;11.960;2024-03-25T04:13:46;5.90;99.90
29729;DHT22;20055;51.498;11.960;2024-03-25T04:16:13;5.80;99.90
29729;DHT22;20055;51.498;11.960;2024-03-25T04:18:39;5.80;99.90
29729;DHT22;20055;51.498;11.960;2024-03-25T04:21:11;5.70;99.90
29729;DHT22;20055;51.498;11.960;2024-03-25T04:23:38;5.70;99.90
29729;DHT22;20055;51.498;11.960;2024-03-25T04:26:04;5.70;99.90
29729;DHT22;20055;51.498;11.960;2024-03-25T04:28:33;5.70;99.90
29729;DHT22;20055;51.498;11.960;2024-03-25T04:30:59;5.70;99.90
29729;DHT22;20055;51.498;11.960;2024-03-25T04:33:25;5.80;99.90
29729;DHT22;20055;51.498;11.960;2024-03-25T04:35:53;5.80;99.90
29729;DHT22;20055;51.498;11.960;2024-03-25T04:38:19;5.80;99.90
29729;DHT22;20055;51.498;11.960;2024-03-25T04:40:45;5.80;99.90
29729;DHT22;20055;51.498;11.960;2024-03-25T04:43:11;5.70;99.90
29729;DHT22;20055;51.498;11.960;2024-03-25T04:45:37;5.70;99.90
29729;DHT22;20055;51.498;11.960;2024-03-25T04:48:04;5.80;99.90
29729;DHT22;20055;51.498;11.960;2024-03-25T04:50:31;5.80;99.90
29729;DHT22;20055;51.498;11.960;2024-03-25T04:52:57;5.80;99.90
29729;DHT22;20055;51.498;11.960;2024-03-25T04:55:23;5.90;99.90
29729;DHT22;20055;51.498;11.960;2024-03-25T04:57:49;5.90;99.90
29729;DHT22;20055;51.498;11.960;2024-03-25T05:00:16;5.90;99.90
29729;DHT22;20055;51.498;11.960;2024-03-25T05:02:42;5.90;99.90
29729;DHT22;20055;51.498;11.960;2024-03-25T05:05:08;5.90;99.90
29729;DHT22;20055;51.498;11.960;2024-03-25T05:07:36;5.90;99.90
29729;DHT22;20055;51.498;11.960;2024-03-25T05:10:03;5.90;99.90
29729;DHT22;20055;51.498;11.960;2024-03-25T05:12:30;5.80;99.90
29729;DHT22;20055;51.498;11.960;2024-03-25T05:14:57;5.80;99.90
29729;DHT22;20055;51.498;11.960;2024-03-25T05:17:23;5.80;99.90
29729;DHT22;20055;51.498;11.960;2024-03-25T05:19:49;5.80;99.90
29729;DHT22;20055;51.498;11.960;2024-03-25T05:22:16;5.80;99.90
29729;DHT22;20055;51.498;11.960;2024-03-25T05:24:43;5.90;99.90
29729;DHT22;20055;51.498;11.960;2024-03-25T05:27:09;5.80;99.90
29729;DHT22;20055;51.498;11.960;2024-03-25T05:29:35;5.80;99.90
29729;DHT22;20055;51.498;11.960;2024-03-25T05:32:02;5.90;99.90
29729;DHT22;20055;51.498;11.960;2024-03-25T05:34:28;6.00;99.90
29729;DHT22;20055;51.498;11.960;2024-03-25T05:36:55;6.00;99.90
29729;DHT22;20055;51.498;11.960;2024-03-25T05:39:21;6.10;99.90
29729;DHT22;20055;51.498;11.960;2024-03-25T05:41:48;6.00;99.90
29729;DHT22;20055;51.498;11.960;2024-03-25T05:44:15;5.90;99.90
29729;DHT22;20055;51.498;11.960;2024-03-25T05:46:41;6.00;99.90
29729;DHT22;20055;51.498;11.960;2024-03-25T05:49:07;5.90;99.90
29729;DHT22;20055;51.498;11.960;2024-03-25T05:51:34;6.00;99.90
29729;DHT22;20055;51.498;11.960;2024-03-25T05:54:00;5.90;99.90
29729;DHT22;20055;51.498;11.960;2024-03-25T05:56:27;6.00;99.90
29729;DHT22;20055;51.498;11.960;2024-03-25T05:59:00;6.10;99.90
29729;DHT22;20055;51.498;11.960;2024-03-25T06:01:26;6.20;99.90
29729;DHT22;20055;51.498;11.960;2024-03-25T06:03:53;6.20;99.90
29729;DHT22;20055;51.498;11.960;2024-03-25T06:06:19;6.20;99.90
29729;DHT22;20055;51.498;11.960;2024-03-25T06:08:46;6.30;99.90
29729;DHT22;20055;51.498;11.960;2024-03-25T06:11:12;6.30;99.90
29729;DHT22;20055;51.498;11.960;2024-03-25T06:13:38;6.30;99.90
29729;DHT22;20055;51.498;11.960;2024-03-25T06:16:05;6.30;99.90
29729;DHT22;20055;51.498;11.960;2024-03-25T06:18:31;6.30;99.90
29729;DHT22;20055;51.498;11.960;2024-03-25T06:20:57;6.40;99.90
29729;DHT22;20055;51.498;11.960;2024-03-25T06:23:24;6.40;99.90
29729;DHT22;20055;51.498;11.960;2024-03-25T06:25:51;6.40;99.90
29729;DHT22;20055;51.498;11.960;2024-03-25T06:28:19;6.40;99.90
29729;DHT22;20055;51.498;11.960;2024-03-25T06:30:50;6.40;99.90
29729;DHT22;20055;51.498;11.960;2024-03-25T06:33:35;6.70;99.90
29729;DHT22;20055;51.498;11.960;2024-03-25T06:36:20;6.70;99.90
29729;DHT22;20055;51.498;11.960;2024-03-25T06:38:46;6.70;99.90
29729;DHT22;20055;51.498;11.960;2024-03-25T06:41:13;6.60;99.90
29729;DHT22;20055;51.498;11.960;2024-03-25T06:43:39;6.60;99.90
29729;DHT22;20055;51.498;11.960;2024-03-25T06:46:06;6.50;99.90
29729;DHT22;20055;51.498;11.960;2024-03-25T06:48:33;6.50;99.90
29729;DHT22;20055;51.498;11.960;2024-03-25T06:51:00;6.50;99.90
29729;DHT22;20055;51.498;11.960;2024-03-25T06:53:29;6.70;99.90
29729;DHT22;20055;51.498;11.960;2024-03-25T06:55:57;6.70;99.90
29729;DHT22;20055;51.498;11.960;2024-03-25T06:58:25;6.80;99.90
29729;DHT22;20055;51.498;11.960;2024-03-25T07:00:52;7.00;99.90
29729;DHT22;20055;51.498;11.960;2024-03-25T07:03:19;7.20;99.90
29729;DHT22;20055;51.498;11.960;2024-03-25T07:05:50;7.30;99.90
29729;DHT22;20055;51.498;11.960;2024-03-25T07:08:19;7.40;99.90
29729;DHT22;20055;51.498;11.960;2024-03-25T07:10:45;7.50;99.90
29729;DHT22;20055;51.498;11.960;2024-03-25T07:13:12;7.50;99.90
29729;DHT22;20055;51.498;11.960;2024-03-25T07:15:38;7.60;99.90
29729;DHT22;20055;51.498;11.960;2024-03-25T07:18:05;7.60;99.90
29729;DHT22;20055;51.498;11.960;2024-03-25T07:20:32;7.50;99.90
29729;DHT22;20055;51.498;11.960;2024-03-25T07:22:58;7.50;99.90
29729;DHT22;20055;51.498;11.960;2024-03-25T07:25:25;7.50;99.90
29729;DHT22;20055;51.498;11.960;2024-03-25T07:27:52;7.60;99.90
29729;DHT22;20055;51.498;11.960;2024-03-25T07:30:19;7.50;99.90
29729;DHT22;20055;51.498;11.960;2024-03-25T07:32:45;7.70;99.90
29729;DHT22;20055;51.498;11.960;2024-03-25T07:35:11;8.00;99.90
29729;DHT22;20055;51.498;11.960;2024-03-25T07:37:38;8.00;99.90
29729;DHT22;20055;51.498;11.960;2024-03-25T07:40:06;8.00;99.90
29729;DHT22;20055;51.498;11.960;2024-03-25T07:42:33;8.30;99.90
29729;DHT22;20055;51.498;11.960;2024-03-25T07:44:59;8.30;99.90
29729;DHT22;20055;51.498;11.960;2024-03-25T07:47:26;8.10;99.90
29729;DHT22;20055;51.498;11.960;2024-03-25T07:49:52;8.00;99.90
29729;DHT22;20055;51.498;11.960;2024-03-25T07:52:18;8.00;99.90
29729;DHT22;20055;51.498;11.960;2024-03-25T07:54:44;7.90;99.90
29729;DHT22;20055;51.498;11.960;2024-03-25T07:57:10;7.70;99.90
29729;DHT22;20055;51.498;11.960;2024-03-25T07:59:36;7.60;99.90
29729;DHT22;20055;51.498;11.960;2024-03-25T08:02:03;7.70;99.90
29729;DHT22;20055;51.498;11.960;2024-03-25T08:04:29;7.90;99.90
29729;DHT22;20055;51.498;11.960;2024-03-25T08:06:55;8.10;99.90
29729;DHT22;20055;51.498;11.960;2024-03-25T08:09:21;8.10;99.90
29729;DHT22;20055;51.498;11.960;2024-03-25T08:11:47;8.10;99.90
29729;DHT22;20055;51.498;11.960;2024-03-25T08:14:14;7.80;99.90
29729;DHT22;20055;51.498;11.960;2024-03-25T08:16:40;7.70;99.90
29729;DHT22;20055;51.498;11.960;2024-03-25T08:19:06;7.60;99.90
29729;DHT22;20055;51.498;11.960;2024-03-25T08:21:32;7.90;99.90
29729;DHT22;20055;51.498;11.960;2024-03-25T08:23:59;7.90;99.90
29729;DHT22;20055;51.498;11.960;2024-03-25T08:26:25;7.70;99.90
29729;DHT22;20055;51.498;11.960;2024-03-25T08:28:51;7.60;99.90
29729;DHT22;20055;51.498;11.960;2024-03-25T08:31:17;7.80;99.90
29729;DHT22;20055;51.498;11.960;2024-03-25T08:33:43;7.70;99.90
29729;DHT22;20055;51.498;11.960;2024-03-25T08:36:09;7.80;99.90
29729;DHT22;20055;51.498;11.960;2024-03-25T08:38:36;8.10;99.90
29729;DHT22;20055;51.498;11.960;2024-03-25T08:41:02;8.20;99.90
29729;DHT22;20055;51.498;11.960;2024-03-25T08:43:28;8.50;99.90
29729;DHT22;20055;51.498;11.960;2024-03-25T08:45:54;8.50;99.90
29729;DHT22;20055;51.498;11.960;2024-03-25T08:48:21;8.40;99.90
29729;DHT22;20055;51.498;11.960;2024-03-25T08:50:47;8.20;99.90
29729;DHT22;20055;51.498;11.960;2024-03-25T08:53:13;8.10;99.90
29729;DHT22;20055;51.498;11.960;2024-03-25T08:55:47;8.20;99.90
29729;DHT22;20055;51.498;11.960;2024-03-25T08:58:14;8.40;99.90
29729;DHT22;20055;51.498;11.960;2024-03-25T09:00:41;8.50;99.90
29729;DHT22;20055;51.498;11.960;2024-03-25T09:03:08;8.40;99.90
29729;DHT22;20055;51.498;11.960;2024-03-25T09:05:34;8.50;99.90
29729;DHT22;20055;51.498;11.960;2024-03-25T09:08:01;8.70;99.90
29729;DHT22;20055;51.498;11.960;2024-03-25T09:10:28;9.00;99.90
29729;DHT22;20055;51.498;11.960;2024-03-25T09:13:13;9.30;99.90
29729;DHT22;20055;51.498;11.960;2024-03-25T09:15:39;9.60;99.90
29729;DHT22;20055;51.498;11.960;2024-03-25T09:18:05;9.80;99.90
29729;DHT22;20055;51.498;11.960;2024-03-25T09:20:32;10.10;99.90
29729;DHT22;20055;51.498;11.960;2024-03-25T09:22:58;10.00;99.90
29729;DHT22;20055;51.498;11.960;2024-03-25T09:25:24;9.50;99.90
29729;DHT22;20055;51.498;11.960;2024-03-25T09:27:50;9.80;99.90
29729;DHT22;20055;51.498;11.960;2024-03-25T09:30:17;10.20;99.90
29729;DHT22;20055;51.498;11.960;2024-03-25T09:32:45;10.30;99.90
29729;DHT22;20055;51.498;11.960;2024-03-25T09:35:11;10.00;99.90
29729;DHT22;20055;51.498;11.960;2024-03-25T09:37:38;9.60;99.90
29729;DHT22;20055;51.498;11.960;2024-03-25T09:40:05;9.30;99.90
29729;DHT22;20055;51.498;11.960;2024-03-25T09:42:47;9.00;99.90
29729;DHT22;20055;51.498;11.960;2024-03-25T09:45:16;8.70;99.90
29729;DHT22;20055;51.498;11.960;2024-03-25T09:47:46;8.60;99.90
29729;DHT22;20055;51.498;11.960;2024-03-25T09:50:14;8.80;99.90
29729;DHT22;20055;51.498;11.960;2024-03-25T09:52:46;9.20;99.90
29729;DHT22;20055;51.498;11.960;2024-03-25T09:55:12;9.20;99.90
29729;DHT22;20055;51.498;11.960;2024-03-25T09:57:39;9.40;99.90
29729;DHT22;20055;51.498;11.960;2024-03-25T10:00:08;9.60;99.90
29729;DHT22;20055;51.498;11.960;2024-03-25T10:02:39;9.70;99.90
29729;DHT22;20055;51.498;11.960;2024-03-25T10:05:07;10.00;99.90
29729;DHT22;20055;51.498;11.960;2024-03-25T10:07:33;10.10;99.90
29729;DHT22;20055;51.498;11.960;2024-03-25T10:10:04;10.00;99.90
29729;DHT22;20055;51.498;11.960;2024-03-25T10:12:31;9.80;99.90
29729;DHT22;20055;51.498;11.960;2024-03-25T10:14:57;10.10;99.90
29729;DHT22;20055;51.498;11.960;2024-03-25T10:17:24;10.40;99.90
29729;DHT22;20055;51.498;11.960;2024-03-25T10:19:53;10.70;99.90
29729;DHT22;20055;51.498;11.960;2024-03-25T10:22:19;10.80;99.90
29729;DHT22;20055;51.498;11.960;2024-03-25T10:24:45;10.70;99.90
29729;DHT22;20055;51.498;11.960;2024-03-25T10:27:22;10.50;99.90
29729;DHT22;20055;51.498;11.960;2024-03-25T10:29:53;10.50;99.90
29729;DHT22;20055;51.498;11.960;2024-03-25T10:32:21;10.40;99.90
29729;DHT22;20055;51.498;11.960;2024-03-25T10:34:51;10.40;99.90
29729;DHT22;20055;51.498;11.960;2024-03-25T10:37:18;10.40;99.90
29729;DHT22;20055;51.498;11.960;2024-03-25T10:39:48;10.30;99.90
29729;DHT22;20055;51.498;11.960;2024-03-25T10:42:19;10.20;99.90
29729;DHT22;20055;51.498;11.960;2024-03-25T10:44:47;10.10;99.90
29729;DHT22;20055;51.498;11.960;2024-03-25T10:47:21;10.30;99.90
29729;DHT22;20055;51.498;11.960;2024-03-25T10:49:56;10.40;99.90
29729;DHT22;20055;51.498;11.960;2024-03-25T10:52:24;10.30;99.90
29729;DHT22;20055;51.498;11.960;2024-03-25T10:54:52;10.50;99.90
29729;DHT22;20055;51.498;11.960;2024-03-25T10:57:21;10.50;99.90
29729;DHT22;20055;51.498;11.960;2024-03-25T10:59:49;10.60;99.90
29729;DHT22;20055;51.498;11.960;2024-03-25T11:02:15;10.50;99.90
29729;DHT22;20055;51.498;11.960;2024-03-25T11:04:44;10.50;99.90
29729;DHT22;20055;51.498;11.960;2024-03-25T11:07:15;10.80;99.90
29729;DHT22;20055;51.498;11.960;2024-03-25T11:09:42;11.10;99.90
29729;DHT22;20055;51.498;11.960;2024-03-25T11:12:13;11.70;99.90
29729;DHT22;20055;51.498;11.960;2024-03-25T11:14:40;11.70;99.90
29729;DHT22;20055;51.498;11.960;2024-03-25T11:17:16;11.70;99.90
29729;DHT22;20055;51.498;11.960;2024-03-25T11:19:43;11.70;99.90
29729;DHT22;20055;51.498;11.960;2024-03-25T11:22:10;11.80;99.90
29729;DHT22;20055;51.498;11.960;2024-03-25T11:24:38;11.20;99.90
29729;DHT22;20055;51.498;11.960;2024-03-25T11:27:09;11.30;99.90
29729;DHT22;20055;51.498;11.960;2024-03-25T11:29:35;10.70;99.90
29729;DHT22;20055;51.498;11.960;2024-03-25T11:32:04;10.60;99.90
29729;DHT22;20055;51.498;11.960;2024-03-25T11:34:31;10.40;99.90
29729;DHT22;20055;51.498;11.960;2024-03-25T11:36:57;10.50;99.90
29729;DHT22;20055;51.498;11.960;2024-03-25T11:39:24;10.60;99.90
29729;DHT22;20055;51.498;11.960;2024-03-25T11:41:55;10.40;99.90
29729;DHT22;20055;51.498;11.960;2024-03-25T11:44:21;10.40;99.90
29729;DHT22;20055;51.498;11.960;2024-03-25T11:46:51;10.60;99.90
29729;DHT22;20055;51.498;11.960;2024-03-25T11:49:21;11.00;99.90
29729;DHT22;20055;51.498;11.960;2024-03-25T11:51:47;10.80;99.90
29729;DHT22;20055;51.498;11.960;2024-03-25T11:54:14;10.70;99.90
29729;DHT22;20055;51.498;11.960;2024-03-25T11:56:41;10.70;99.90
29729;DHT22;20055;51.498;11.960;2024-03-25T11:59:09;10.50;99.90
29729;DHT22;20055;51.498;11.960;2024-03-25T12:01:37;10.40;99.90
29729;DHT22;20055;51.498;11.960;2024-03-25T12:04:16;10.40;99.90
29729;DHT22;20055;51.498;11.960;2024-03-25T12:06:43;10.40;99.90
29729;DHT22;20055;51.498;11.960;2024-03-25T12:09:10;10.70;99.90
29729;DHT22;20055;51.498;11.960;2024-03-25T12:11:57;11.10;99.90
29729;DHT22;20055;51.498;11.960;2024-03-25T12:14:24;11.30;99.90
29729;DHT22;20055;51.498;11.960;2024-03-25T12:16:53;11.30;99.90
29729;DHT22;20055;51.498;11.960;2024-03-25T12:19:20;11.20;99.90
29729;DHT22;20055;51.498;11.960;2024-03-25T12:21:47;11.20;99.90
29729;DHT22;20055;51.498;11.960;2024-03-25T12:24:14;10.40;99.90
29729;DHT22;20055;51.498;11.960;2024-03-25T12:26:43;9.90;99.90
29729;DHT22;20055;51.498;11.960;2024-03-25T12:29:10;9.50;99.90
29729;DHT22;20055;51.498;11.960;2024-03-25T12:31:36;9.20;99.90
29729;DHT22;20055;51.498;11.960;2024-03-25T12:34:09;9.00;99.90
29729;DHT22;20055;51.498;11.960;2024-03-25T12:36:37;9.20;99.90
29729;DHT22;20055;51.498;11.960;2024-03-25T12:39:03;9.10;99.90
29729;DHT22;20055;51.498;11.960;2024-03-25T12:41:30;9.30;99.90
29729;DHT22;20055;51.498;11.960;2024-03-25T12:43:57;9.40;99.90
29729;DHT22;20055;51.498;11.960;2024-03-25T12:46:23;9.90;99.90
29729;DHT22;20055;51.498;11.960;2024-03-25T12:48:51;10.00;99.90
29729;DHT22;20055;51.498;11.960;2024-03-25T12:51:17;10.10;99.90
29729;DHT22;20055;51.498;11.960;2024-03-25T12:53:43;9.70;99.90
29729;DHT22;20055;51.498;11.960;2024-03-25T12:56:09;9.40;99.90
29729;DHT22;20055;51.498;11.960;2024-03-25T12:58:35;9.20;99.90
29729;DHT22;20055;51.498;11.960;2024-03-25T13:01:01;9.00;99.90
29729;DHT22;20055;51.498;11.960;2024-03-25T13:03:28;9.30;99.90
29729;DHT22;20055;51.498;11.960;2024-03-25T13:05:57;9.70;99.90
29729;DHT22;20055;51.498;11.960;2024-03-25T13:08:25;9.90;99.90
29729;DHT22;20055;51.498;11.960;2024-03-25T13:10:51;10.20;99.90
29729;DHT22;20055;51.498;11.960;2024-03-25T13:13:18;10.30;99.90
29729;DHT22;20055;51.498;11.960;2024-03-25T13:15:44;10.30;99.90
29729;DHT22;20055;51.498;11.960;2024-03-25T13:18:11;10.40;99.90
29729;DHT22;20055;51.498;11.960;2024-03-25T13:20:37;10.00;99.90
29729;DHT22;20055;51.498;11.960;2024-03-25T13:23:03;10.00;99.90
29729;DHT22;20055;51.498;11.960;2024-03-25T13:25:29;10.20;99.90
29729;DHT22;20055;51.498;11.960;2024-03-25T13:27:55;10.50;99.90
29729;DHT22;20055;51.498;11.960;2024-03-25T13:30:22;10.80;99.90
29729;DHT22;20055;51.498;11.960;2024-03-25T13:32:50;10.60;99.90
29729;DHT22;20055;51.498;11.960;2024-03-25T13:35:17;10.50;99.90
29729;DHT22;20055;51.498;11.960;2024-03-25T13:37:44;10.60;99.90
29729;DHT22;20055;51.498;11.960;2024-03-25T13:40:10;10.50;99.90
29729;DHT22;20055;51.498;11.960;2024-03-25T13:42:40;10.40;99.90
29729;DHT22;20055;51.498;11.960;2024-03-25T13:45:07;10.60;99.90
29729;DHT22;20055;51.498;11.960;2024-03-25T13:47:33;10.70;99.90
29729;DHT22;20055;51.498;11.960;2024-03-25T13:50:03;10.70;99.90
29729;DHT22;20055;51.498;11.960;2024-03-25T13:52:29;11.00;99.90
29729;DHT22;20055;51.498;11.960;2024-03-25T13:54:56;10.90;99.90
29729;DHT22;20055;51.498;11.960;2024-03-25T13:57:23;10.20;99.90
29729;DHT22;20055;51.498;11.960;2024-03-25T13:59:50;10.30;99.90
29729;DHT22;20055;51.498;11.960;2024-03-25T14:02:16;10.10;99.90
29729;DHT22;20055;51.498;11.960;2024-03-25T14:04:43;10.10;99.90
29729;DHT22;20055;51.498;11.960;2024-03-25T14:07:10;10.20;99.90
29729;DHT22;20055;51.498;11.960;2024-03-25T14:09:36;10.30;99.90
29729;DHT22;20055;51.498;11.960;2024-03-25T14:12:02;10.50;99.90
29729;DHT22;20055;51.498;11.960;2024-03-25T14:14:30;10.60;99.90
29729;DHT22;20055;51.498;11.960;2024-03-25T14:16:56;10.90;99.90
29729;DHT22;20055;51.498;11.960;2024-03-25T14:19:22;10.80;99.90
29729;DHT22;20055;51.498;11.960;2024-03-25T14:21:50;10.80;99.90
29729;DHT22;20055;51.498;11.960;2024-03-25T14:24:16;10.80;99.90
29729;DHT22;20055;51.498;11.960;2024-03-25T14:26:43;11.10;99.90
29729;DHT22;20055;51.498;11.960;2024-03-25T14:29:09;11.50;99.90
29729;DHT22;20055;51.498;11.960;2024-03-25T14:31:36;11.50;99.90
29729;DHT22;20055;51.498;11.960;2024-03-25T14:34:02;11.80;99.60
29729;DHT22;20055;51.498;11.960;2024-03-25T14:36:28;11.80;98.60
29729;DHT22;20055;51.498;11.960;2024-03-25T14:38:55;11.90;98.20
29729;DHT22;20055;51.498;11.960;2024-03-25T14:41:21;11.90;97.70
29729;DHT22;20055;51.498;11.960;2024-03-25T14:43:47;12.20;97.00
29729;DHT22;20055;51.498;11.960;2024-03-25T14:46:14;12.30;96.60
29729;DHT22;20055;51.498;11.960;2024-03-25T14:48:41;12.20;96.20
29729;DHT22;20055;51.498;11.960;2024-03-25T14:51:08;12.00;96.70
29729;DHT22;20055;51.498;11.960;2024-03-25T14:53:34;11.90;97.30
29729;DHT22;20055;51.498;11.960;2024-03-25T14:56:00;12.00;97.70
29729;DHT22;20055;51.498;11.960;2024-03-25T14:58:27;12.10;97.50
29729;DHT22;20055;51.498;11.960;2024-03-25T15:00:53;12.10;98.00
29729;DHT22;20055;51.498;11.960;2024-03-25T15:03:19;12.30;98.10
29729;DHT22;20055;51.498;11.960;2024-03-25T15:05:45;12.50;96.70
29729;DHT22;20055;51.498;11.960;2024-03-25T15:08:12;12.70;97.20
29729;DHT22;20055;51.498;11.960;2024-03-25T15:10:38;12.70;97.90
29729;DHT22;20055;51.498;11.960;2024-03-25T15:13:04;12.60;94.90
29729;DHT22;20055;51.498;11.960;2024-03-25T15:15:30;12.10;94.90
29729;DHT22;20055;51.498;11.960;2024-03-25T15:18:01;11.80;96.00
29729;DHT22;20055;51.498;11.960;2024-03-25T15:20:27;11.80;96.50
29729;DHT22;20055;51.498;11.960;2024-03-25T15:22:54;11.80;96.40
29729;DHT22;20055;51.498;11.960;2024-03-25T15:25:20;11.80;96.30
29729;DHT22;20055;51.498;11.960;2024-03-25T15:27:46;11.80;96.90